Southwest Georgia Regional Airport
KABY : now visible

Airfield :











YOU CAN JOIN US ON...

 
LOGIN :

Register | Disclaimer

   EN    FR    IT 

 









Legend :    VFR   Marginal VFR   IFR   Intensive IFR   Very Intensive IFR
Visi :
Ceiling :
>= 8 km
>= 3000ft
5 to 8 km
1000 to 3000 ft
1500m to 5 km
500 to 1000 ft
800 to 1500m
200 to 500 ft
< 800m
< 200 ft
Symbols :   Thunderstorms  Fog  Heavy snow  Heavy precipitations  Wind > 20 kt






- Airport Elevation : 197 ft
- IATA code : ABY


KABY - Southwest Georgia Regional

CURRENT METAR :
  • 261653Z 29009KT 10SM SCT120 16/13 A2997 RMK AO2 SLP149 T01610133

EXPIRED METARs :
  • 261553Z 25003KT 10SM OVC050 16/13 A2998 RMK AO2 SLP151 T01610133
  • 261453Z 33004KT 10SM OVC043 16/14 A2993 RMK AO2 SLP135 T01610139 50007

TAF KABY
Valid from the 26 at 12:00 until the 27 at 12:00 UTC


261136Z 2612/2712 27005KT P6SM SCT025 OVC045
FM261500 25006KT P6SM -RA BKN025
FM261800 29010G20KT P6SM -RA OVC050
FM270000 31014KT P6SM OVC050
FM270900 31009KT P6SM SKC



MET'MAP, your aeronautical weather chart ! - Copyright ORBIFLY December 2007 - Disclaimer

ORBIFLY MET'MAP TEAM :

Programming & Development : Alexandra Zaïnal
Concept & original design : Baudouin d'Aumeries
Assistance for programming : Marc-Olivier Méhu
Technical & hardware support : Manuel Goepfert

Contact : metmap@orbifly.com




SOURCES & CREDITS :

   NOAA       Earth
Advisory